Time;durP1;ratioP1;P1;durP2;ratioP2;P2;SDS_P1;SDS_P2;PMS_P1;PMS_P2;Temp;Humidity;BMP_temperature;BMP_pressure;BME280_temperature;BME280_humidity;BME280_pressure;Samples;Min_cycle;Max_cycle;Signal;HPM_P1;HPM_P2
2023/05/11 00:00:43;;;;;;;6.10;4.37;;;12.00;99.90;;;;;;5118464;27;20244;-85
2023/05/11 00:03:13;;;;;;;6.30;4.33;;;12.00;99.90;;;;;;5113499;28;20201;-86
2023/05/11 00:05:41;;;;;;;7.20;4.60;;;12.00;99.90;;;;;;5113378;28;20220;-85
2023/05/11 00:08:08;;;;;;;7.47;4.83;;;11.90;99.90;;;;;;5114255;28;20205;-86
2023/05/11 00:10:37;;;;;;;9.27;6.00;;;12.00;99.90;;;;;;5110449;28;20246;-86
2023/05/11 00:13:04;;;;;;;9.87;5.57;;;12.00;99.90;;;;;;5114424;28;20288;-85
2023/05/11 00:15:32;;;;;;;8.47;6.27;;;12.00;99.90;;;;;;5114922;28;20567;-86
2023/05/11 00:17:59;;;;;;;8.67;5.93;;;12.00;99.90;;;;;;5114348;28;20659;-85
2023/05/11 00:20:26;;;;;;;8.13;5.33;;;12.00;99.90;;;;;;5114301;28;20266;-85
2023/05/11 00:22:55;;;;;;;9.53;6.33;;;12.00;99.90;;;;;;5115473;28;20204;-85
2023/05/11 00:25:27;;;;;;;10.30;6.67;;;12.00;99.90;;;;;;5119452;28;20197;-84
2023/05/11 00:27:55;;;;;;;8.53;6.40;;;12.00;99.90;;;;;;5119159;28;20223;-85
2023/05/11 00:30:22;;;;;;;8.97;6.07;;;12.10;99.90;;;;;;5118617;28;20267;-86
2023/05/11 00:32:52;;;;;;;8.93;5.90;;;12.00;99.90;;;;;;5118656;28;20628;-85
2023/05/11 00:35:19;;;;;;;9.83;6.80;;;12.10;99.90;;;;;;5118515;28;20215;-85
2023/05/11 00:37:49;;;;;;;11.27;6.93;;;12.10;99.90;;;;;;5118124;28;20296;-85
2023/05/11 00:40:16;;;;;;;9.30;6.30;;;12.10;99.90;;;;;;5117318;28;20282;-84
2023/05/11 00:42:51;;;;;;;9.43;6.73;;;12.10;99.90;;;;;;5118479;28;20213;-85
2023/05/11 00:45:20;;;;;;;11.23;8.03;;;12.20;99.90;;;;;;5117685;28;20569;-84
2023/05/11 00:48:02;;;;;;;13.90;7.70;;;12.30;99.90;;;;;;5118193;28;20204;-84
2023/05/11 00:50:30;;;;;;;11.03;7.47;;;12.10;99.90;;;;;;5115639;28;20224;-85
2023/05/11 00:53:00;;;;;;;13.73;8.10;;;12.00;99.90;;;;;;5116724;28;20193;-85
2023/05/11 00:55:28;;;;;;;12.23;7.67;;;11.90;99.90;;;;;;5117164;28;20234;-85
2023/05/11 00:57:55;;;;;;;10.93;7.90;;;12.00;99.90;;;;;;5117968;28;20208;-85
2023/05/11 01:00:22;;;;;;;12.37;8.63;;;11.90;99.90;;;;;;5116647;28;20774;-85
2023/05/11 01:02:49;;;;;;;12.43;8.33;;;11.90;99.90;;;;;;5117095;28;20231;-85
2023/05/11 01:05:16;;;;;;;11.57;8.43;;;11.90;99.90;;;;;;5116599;28;20201;-85
2023/05/11 01:07:55;;;;;;;13.27;8.40;;;11.90;99.90;;;;;;5116449;28;20204;-85
2023/05/11 01:10:32;;;;;;;13.13;7.33;;;11.90;99.90;;;;;;5116423;28;20699;-85
2023/05/11 01:13:10;;;;;;;12.00;7.60;;;11.90;99.90;;;;;;5117298;28;20196;-85
2023/05/11 01:15:44;;;;;;;12.73;8.20;;;11.90;99.90;;;;;;5116509;28;20215;-85
2023/05/11 01:18:18;;;;;;;11.37;7.83;;;11.90;99.90;;;;;;5116605;28;20231;-86
2023/05/11 01:20:48;;;;;;;13.90;8.10;;;12.00;99.90;;;;;;5114405;28;20619;-86
2023/05/11 01:23:44;;;;;;;10.17;7.63;;;11.90;99.90;;;;;;5116844;28;20284;-85
2023/05/11 01:26:48;;;;;;;11.43;8.17;;;11.90;99.90;;;;;;5116373;28;20211;-85
2023/05/11 01:29:43;;;;;;;9.37;6.87;;;12.00;99.90;;;;;;5071627;28;20210;-85
2023/05/11 01:32:18;;;;;;;11.23;7.70;;;11.90;99.90;;;;;;5106947;27;20650;-85
2023/05/11 01:34:55;;;;;;;12.30;7.70;;;12.00;99.90;;;;;;5116760;28;20283;-84
2023/05/11 01:37:23;;;;;;;12.90;8.47;;;11.90;99.90;;;;;;5117321;28;20287;-85
2023/05/11 01:39:53;;;;;;;12.73;8.50;;;11.90;99.90;;;;;;5118109;28;20212;-85
2023/05/11 01:42:24;;;;;;;10.80;8.23;;;11.90;99.90;;;;;;5117389;28;20223;-85
2023/05/11 01:44:55;;;;;;;10.93;8.17;;;11.90;99.90;;;;;;5117712;28;20299;-85
2023/05/11 01:47:31;;;;;;;11.30;8.03;;;11.80;99.90;;;;;;5117476;28;20208;-84
2023/05/11 01:50:00;;;;;;;12.83;8.20;;;11.80;99.90;;;;;;5116810;28;20299;-85
2023/05/11 01:52:29;;;;;;;13.87;8.10;;;11.80;99.90;;;;;;5116380;28;20295;-84
2023/05/11 01:54:57;;;;;;;11.23;7.10;;;11.80;99.90;;;;;;5100230;28;20215;-85
2023/05/11 01:57:31;;;;;;;10.83;7.13;;;11.60;99.90;;;;;;5116074;28;20205;-85
2023/05/11 01:59:58;;;;;;;10.85;7.57;;;11.70;99.90;;;;;;5116660;28;20212;-85
2023/05/11 02:02:26;;;;;;;12.20;8.47;;;11.80;99.90;;;;;;5116058;28;20231;-84
2023/05/11 02:04:58;;;;;;;11.20;7.17;;;11.80;99.90;;;;;;5118959;27;20193;-85
2023/05/11 02:07:29;;;;;;;10.83;6.70;;;11.70;99.90;;;;;;5125059;27;20596;-85
2023/05/11 02:09:58;;;;;;;10.03;7.00;;;11.70;99.90;;;;;;5115787;28;20254;-85
2023/05/11 02:12:26;;;;;;;11.27;7.33;;;11.80;99.90;;;;;;5114600;28;20197;-85
2023/05/11 02:14:54;;;;;;;11.63;7.13;;;11.80;99.90;;;;;;5115103;28;20675;-84
2023/05/11 02:17:22;;;;;;;10.57;6.70;;;11.80;99.90;;;;;;5115913;28;20571;-85
2023/05/11 02:19:53;;;;;;;9.20;6.60;;;11.70;99.90;;;;;;5115190;28;20757;-85
2023/05/11 02:22:23;;;;;;;13.83;7.57;;;11.70;99.90;;;;;;5114949;28;20273;-85
2023/05/11 02:24:50;;;;;;;8.70;6.37;;;11.60;99.90;;;;;;5116391;28;20205;-86
2023/05/11 02:27:17;;;;;;;9.77;6.33;;;11.80;99.90;;;;;;5116961;28;20219;-85
2023/05/11 02:29:44;;;;;;;10.33;6.03;;;11.70;99.90;;;;;;5116330;28;20201;-86
2023/05/11 02:32:17;;;;;;;11.77;6.80;;;11.80;99.90;;;;;;5115582;28;20193;-85
2023/05/11 02:34:49;;;;;;;10.67;7.00;;;11.80;99.90;;;;;;5116189;28;20254;-86
2023/05/11 02:37:24;;;;;;;10.50;6.70;;;11.80;99.90;;;;;;5115725;28;20288;-85
2023/05/11 02:39:57;;;;;;;11.63;6.83;;;11.70;99.90;;;;;;5116137;28;20303;-85
2023/05/11 02:42:27;;;;;;;11.37;6.83;;;11.70;99.90;;;;;;5115659;28;20220;-84
2023/05/11 02:44:58;;;;;;;10.67;6.90;;;11.80;99.90;;;;;;5115978;28;20223;-85
2023/05/11 02:47:30;;;;;;;11.07;7.20;;;11.90;99.90;;;;;;5125509;27;20614;-85
2023/05/11 02:50:00;;;;;;;11.30;6.80;;;11.80;99.90;;;;;;5115452;27;20586;-85
2023/05/11 02:52:29;;;;;;;13.10;7.37;;;11.90;99.90;;;;;;5115248;28;20192;-85
2023/05/11 02:54:57;;;;;;;10.77;6.97;;;11.90;99.90;;;;;;5114275;28;20679;-84
2023/05/11 02:57:41;;;;;;;12.13;6.93;;;11.80;99.90;;;;;;5116194;28;20205;-85
2023/05/11 03:00:10;;;;;;;11.27;6.87;;;12.00;99.90;;;;;;5114399;28;20225;-84
2023/05/11 03:02:39;;;;;;;12.10;7.20;;;11.90;99.90;;;;;;5113874;28;20221;-87
2023/05/11 03:05:09;;;;;;;11.67;7.63;;;11.90;99.90;;;;;;5114472;28;20204;-86
2023/05/11 03:07:38;;;;;;;10.80;7.30;;;11.70;99.90;;;;;;5112995;28;20201;-86
2023/05/11 03:10:07;;;;;;;11.23;7.13;;;11.90;99.90;;;;;;5114002;28;20267;-84
2023/05/11 03:12:37;;;;;;;12.00;8.07;;;11.80;99.90;;;;;;5114887;28;20557;-85
2023/05/11 03:15:10;;;;;;;12.67;8.43;;;11.90;99.90;;;;;;5114542;28;20762;-84
2023/05/11 03:17:39;;;;;;;11.90;7.60;;;11.90;99.90;;;;;;5114440;28;20565;-85
2023/05/11 03:20:13;;;;;;;13.27;7.57;;;11.90;99.90;;;;;;5113505;28;20223;-84
2023/05/11 03:22:51;;;;;;;19.23;8.13;;;11.80;99.90;;;;;;5114700;27;20699;-83
2023/05/11 03:25:22;;;;;;;10.87;7.20;;;11.90;99.90;;;;;;5111170;28;20226;-84
2023/05/11 03:27:51;;;;;;;11.50;7.30;;;11.80;99.90;;;;;;5120314;27;20224;-84
2023/05/11 03:30:18;;;;;;;11.60;7.60;;;11.70;99.90;;;;;;5128471;27;20224;-84
2023/05/11 03:36:18;;;;;;;11.10;7.10;;;11.70;99.90;;;;;;5100332;28;20197;-84
2023/05/11 03:39:16;;;;;;;13.77;8.23;;;11.70;99.90;;;;;;5115346;28;20231;-83
2023/05/11 03:42:06;;;;;;;11.73;6.97;;;11.50;99.90;;;;;;5116822;28;20232;-85
2023/05/11 03:47:35;;;;;;;13.03;7.50;;;11.70;99.90;;;;;;5055409;28;20728;-84
2023/05/11 03:50:07;;;;;;;14.00;9.13;;;11.50;99.90;;;;;;5058406;28;20215;-85
2023/05/11 03:52:57;;;;;;;17.17;10.47;;;11.60;99.90;;;;;;5101399;28;20207;-83
2023/05/11 03:55:29;;;;;;;17.30;11.00;;;11.60;99.90;;;;;;5093003;28;20210;-85
2023/05/11 03:57:55;;;;;;;20.17;12.50;;;11.60;99.90;;;;;;5107868;28;20732;-84
2023/05/11 04:00:32;;;;;;;20.37;13.00;;;11.60;99.90;;;;;;5113895;28;20221;-84
2023/05/11 04:03:07;;;;;;;19.90;12.73;;;11.60;99.90;;;;;;5110524;28;20216;-84
2023/05/11 04:05:45;;;;;;;21.03;13.60;;;11.60;99.90;;;;;;5115355;28;20267;-83
2023/05/11 04:08:13;;;;;;;20.33;12.80;;;11.60;99.90;;;;;;5112865;28;20576;-83
2023/05/11 04:20:58;;;;;;;20.83;12.30;;;11.50;99.90;;;;;;4990683;22;20218;-78
2023/05/11 04:23:25;;;;;;;21.97;12.40;;;11.60;99.90;;;;;;5060065;28;20258;-78
2023/05/11 04:25:55;;;;;;;21.23;13.90;;;11.60;99.90;;;;;;5066473;28;20203;-78
2023/05/11 04:28:26;;;;;;;20.43;12.73;;;11.60;99.90;;;;;;5067644;28;20218;-77
2023/05/11 04:30:54;;;;;;;19.50;12.03;;;11.60;99.90;;;;;;5063447;28;20260;-77
2023/05/11 04:33:21;;;;;;;20.40;12.73;;;11.70;99.90;;;;;;5064776;28;20296;-77
2023/05/11 04:35:50;;;;;;;19.10;12.43;;;11.70;99.90;;;;;;5062641;28;20572;-78
2023/05/11 04:38:18;;;;;;;18.47;12.00;;;11.70;99.90;;;;;;5067357;28;20207;-77
2023/05/11 04:40:46;;;;;;;17.97;12.07;;;11.70;99.90;;;;;;5061769;28;20203;-79
2023/05/11 04:43:13;;;;;;;18.20;11.97;;;11.60;99.90;;;;;;5065420;28;20223;-78
2023/05/11 04:45:40;;;;;;;18.77;12.03;;;11.70;99.90;;;;;;5069530;28;20695;-79
2023/05/11 04:48:07;;;;;;;18.30;11.67;;;11.60;99.90;;;;;;5067941;28;20660;-79
2023/05/11 04:50:34;;;;;;;18.57;11.57;;;11.70;99.90;;;;;;5068430;28;20203;-79
2023/05/11 04:53:00;;;;;;;19.47;11.90;;;11.70;99.90;;;;;;5071609;28;20763;-79
2023/05/11 04:55:29;;;;;;;18.23;11.47;;;11.80;99.90;;;;;;5067483;28;20203;-79
2023/05/11 04:57:55;;;;;;;17.10;10.57;;;11.70;99.90;;;;;;5072833;28;20234;-80
2023/05/11 05:00:22;;;;;;;18.80;11.33;;;11.80;99.90;;;;;;5073989;28;20199;-78
2023/05/11 05:02:50;;;;;;;17.70;11.20;;;11.80;99.90;;;;;;5061071;28;20219;-79
2023/05/11 05:05:18;;;;;;;16.10;10.30;;;11.80;99.90;;;;;;5067226;28;20203;-78
2023/05/11 05:07:44;;;;;;;15.27;10.20;;;11.80;99.90;;;;;;5070313;28;20271;-79
2023/05/11 05:10:12;;;;;;;15.60;10.07;;;11.90;99.90;;;;;;5067702;28;20206;-78
2023/05/11 05:12:40;;;;;;;15.00;10.03;;;11.90;99.90;;;;;;5072736;28;20726;-80
2023/05/11 05:15:08;;;;;;;15.97;10.23;;;11.90;99.90;;;;;;5071363;28;20209;-80
2023/05/11 05:17:35;;;;;;;17.80;10.80;;;11.80;99.90;;;;;;5071638;28;20255;-80
2023/05/11 05:20:03;;;;;;;17.40;11.30;;;11.80;99.90;;;;;;5076116;28;20226;-79
2023/05/11 05:22:33;;;;;;;17.03;11.00;;;11.80;99.90;;;;;;5072940;28;20233;-79
2023/05/11 05:25:00;;;;;;;16.50;10.83;;;11.90;99.90;;;;;;5069254;28;20215;-80
2023/05/11 05:27:28;;;;;;;17.37;11.23;;;11.90;99.90;;;;;;5072123;28;20222;-80
2023/05/11 05:29:56;;;;;;;18.53;10.80;;;11.80;99.90;;;;;;5077770;28;20251;-79
2023/05/11 05:32:22;;;;;;;17.13;10.63;;;11.80;99.90;;;;;;5070188;28;20571;-80
2023/05/11 05:34:49;;;;;;;18.40;12.07;;;11.80;99.90;;;;;;5068823;28;20297;-79
2023/05/11 05:37:16;;;;;;;16.47;10.90;;;11.80;99.90;;;;;;5073283;28;20212;-78
2023/05/11 05:39:43;;;;;;;16.07;10.23;;;11.80;99.90;;;;;;5071970;28;20216;-79
2023/05/11 05:42:10;;;;;;;16.20;11.10;;;11.80;99.90;;;;;;5076099;28;20248;-80
2023/05/11 05:44:36;;;;;;;17.60;10.97;;;11.80;99.90;;;;;;5070658;28;20221;-78
2023/05/11 05:47:05;;;;;;;16.53;10.57;;;11.80;99.90;;;;;;5080876;28;20252;-79
2023/05/11 05:49:32;;;;;;;16.87;10.93;;;11.80;99.90;;;;;;5076669;28;20237;-79
2023/05/11 05:51:59;;;;;;;15.97;10.60;;;11.80;99.90;;;;;;5081217;28;20233;-80
2023/05/11 05:54:26;;;;;;;16.33;10.37;;;11.80;99.90;;;;;;5075562;28;20587;-80
2023/05/11 05:56:53;;;;;;;15.47;10.87;;;11.70;99.90;;;;;;5058180;28;20238;-78
2023/05/11 05:59:22;;;;;;;15.83;10.47;;;11.80;99.90;;;;;;5062143;28;20659;-79
2023/05/11 06:01:49;;;;;;;16.00;10.13;;;11.80;99.90;;;;;;5056395;28;20238;-80
2023/05/11 06:04:17;;;;;;;16.47;10.87;;;11.80;99.90;;;;;;5061365;28;20258;-78
2023/05/11 06:06:44;;;;;;;16.20;11.03;;;11.80;99.90;;;;;;5059901;28;20214;-79
2023/05/11 06:09:11;;;;;;;16.87;10.70;;;11.90;99.90;;;;;;5058995;28;20588;-78
2023/05/11 06:11:39;;;;;;;16.67;10.30;;;11.80;99.90;;;;;;5062674;28;20226;-79
2023/05/11 06:14:06;;;;;;;13.67;9.00;;;11.90;99.90;;;;;;5062411;28;20206;-77
2023/05/11 06:16:33;;;;;;;14.20;9.40;;;11.90;99.90;;;;;;5059646;28;20270;-78
2023/05/11 06:19:00;;;;;;;15.67;9.80;;;11.80;99.90;;;;;;5066340;28;20663;-79
2023/05/11 06:21:28;;;;;;;14.20;9.67;;;11.90;99.90;;;;;;5069499;28;20222;-80
2023/05/11 06:23:55;;;;;;;15.53;10.17;;;12.00;99.90;;;;;;5074208;28;20221;-79
2023/05/11 06:26:23;;;;;;;14.53;9.87;;;11.90;99.90;;;;;;5069239;28;20222;-80
2023/05/11 06:28:51;;;;;;;18.03;10.40;;;11.90;99.90;;;;;;5073177;28;20231;-79
2023/05/11 06:31:18;;;;;;;15.47;9.80;;;12.00;99.90;;;;;;5067129;28;20244;-81
2023/05/11 06:33:45;;;;;;;14.83;10.23;;;12.00;99.90;;;;;;5070752;28;20206;-79
2023/05/11 06:36:12;;;;;;;14.37;10.03;;;12.00;99.90;;;;;;5058743;28;20211;-79
2023/05/11 06:38:40;;;;;;;13.43;9.33;;;12.00;99.90;;;;;;5076626;28;20206;-79
2023/05/11 06:41:09;;;;;;;15.27;10.57;;;12.10;99.90;;;;;;5070065;28;20659;-79
2023/05/11 06:43:36;;;;;;;13.73;9.47;;;12.20;99.90;;;;;;5070722;28;20882;-80
2023/05/11 06:46:04;;;;;;;14.37;9.27;;;12.30;99.90;;;;;;5066782;28;20203;-79
2023/05/11 06:48:31;;;;;;;13.70;9.03;;;12.30;99.90;;;;;;5075809;28;20198;-79
2023/05/11 06:50:58;;;;;;;16.10;10.20;;;12.20;99.90;;;;;;5066581;28;20206;-79
2023/05/11 06:53:24;;;;;;;15.67;10.23;;;12.20;99.90;;;;;;5066325;28;20232;-79
2023/05/11 06:55:54;;;;;;;15.37;9.13;;;12.30;99.90;;;;;;5070760;28;20230;-81
2023/05/11 06:58:23;;;;;;;14.93;10.30;;;12.40;99.90;;;;;;5063046;28;20195;-78
2023/05/11 07:00:50;;;;;;;16.87;10.67;;;12.40;99.90;;;;;;5074926;28;20195;-78
2023/05/11 07:03:17;;;;;;;16.13;10.13;;;12.40;99.90;;;;;;5065744;28;20237;-78
2023/05/11 07:05:43;;;;;;;15.80;10.60;;;12.40;99.90;;;;;;5059839;28;20227;-78
2023/05/11 07:08:10;;;;;;;15.33;10.47;;;12.50;99.90;;;;;;5060872;28;20635;-79
2023/05/11 07:10:37;;;;;;;16.33;10.50;;;12.50;99.90;;;;;;5066775;28;20209;-79
2023/05/11 07:13:05;;;;;;;15.83;10.83;;;12.60;99.90;;;;;;5066876;28;20237;-78
2023/05/11 07:15:32;;;;;;;15.90;10.77;;;12.50;99.90;;;;;;5062085;28;20203;-78
2023/05/11 07:18:00;;;;;;;16.37;10.67;;;12.50;99.90;;;;;;5059234;28;20652;-78
2023/05/11 07:20:26;;;;;;;16.80;10.33;;;12.60;99.90;;;;;;5059687;28;20211;-79
2023/05/11 07:22:56;;;;;;;15.27;10.07;;;12.70;99.90;;;;;;5062412;28;20238;-80
2023/05/11 07:25:23;;;;;;;15.33;9.90;;;12.70;99.90;;;;;;5057167;28;20199;-80
2023/05/11 07:27:50;;;;;;;16.70;10.67;;;12.70;99.90;;;;;;5060485;28;20206;-79
2023/05/11 07:30:18;;;;;;;15.07;10.37;;;12.70;99.90;;;;;;5068313;28;20207;-77
2023/05/11 07:32:46;;;;;;;15.07;9.83;;;12.70;99.90;;;;;;5067233;28;20718;-78
2023/05/11 07:35:14;;;;;;;17.97;11.47;;;12.80;99.90;;;;;;5059493;28;20214;-78
2023/05/11 07:37:41;;;;;;;14.87;10.00;;;12.80;99.90;;;;;;5066842;28;20202;-78
2023/05/11 07:40:08;;;;;;;16.67;10.97;;;12.80;99.90;;;;;;5071366;28;20210;-78
2023/05/11 07:42:35;;;;;;;17.03;10.20;;;12.90;99.90;;;;;;5064306;28;20248;-78
2023/05/11 07:45:02;;;;;;;16.10;10.37;;;13.00;99.90;;;;;;5064634;28;20272;-79
2023/05/11 07:47:30;;;;;;;16.67;10.17;;;13.10;99.90;;;;;;5066453;28;20210;-79
2023/05/11 07:49:57;;;;;;;14.43;9.60;;;13.10;99.90;;;;;;5067777;28;20210;-79
2023/05/11 07:52:24;;;;;;;15.57;9.80;;;13.20;99.90;;;;;;5066891;28;20604;-80
2023/05/11 07:54:51;;;;;;;16.13;10.50;;;13.10;99.90;;;;;;5073668;28;20598;-80
2023/05/11 07:57:20;;;;;;;14.60;9.77;;;13.20;99.90;;;;;;5073046;28;20644;-84
2023/05/11 07:59:46;;;;;;;16.97;10.50;;;13.20;99.90;;;;;;5061808;28;20289;-81
2023/05/11 08:02:14;;;;;;;16.10;9.60;;;13.20;99.90;;;;;;5069349;28;20261;-81
2023/05/11 08:04:42;;;;;;;15.30;9.90;;;13.20;99.90;;;;;;5061356;28;20322;-81
2023/05/11 08:07:09;;;;;;;17.00;10.47;;;13.30;99.90;;;;;;5070580;28;20285;-82
2023/05/11 08:09:36;;;;;;;15.00;9.83;;;13.30;99.90;;;;;;5069173;28;20195;-86
2023/05/11 08:12:03;;;;;;;16.53;10.67;;;13.30;99.90;;;;;;5073595;28;20305;-81
2023/05/11 08:14:31;;;;;;;13.63;9.20;;;13.30;99.90;;;;;;5068582;28;20202;-84
2023/05/11 08:16:58;;;;;;;15.97;10.53;;;13.30;99.90;;;;;;5063608;28;20203;-81
2023/05/11 08:19:25;;;;;;;15.90;10.20;;;13.30;99.90;;;;;;5069913;28;20206;-81
2023/05/11 08:21:53;;;;;;;14.90;9.73;;;13.20;99.90;;;;;;5064127;28;20231;-82
2023/05/11 08:24:20;;;;;;;16.27;10.27;;;13.20;99.90;;;;;;5064616;28;20681;-81
2023/05/11 08:26:47;;;;;;;14.30;9.90;;;13.30;99.90;;;;;;5061212;28;20211;-81
2023/05/11 08:29:14;;;;;;;16.23;10.20;;;13.30;99.90;;;;;;5071446;28;20210;-81
2023/05/11 08:31:40;;;;;;;16.20;9.40;;;13.40;99.90;;;;;;5068952;28;20517;-81
2023/05/11 08:34:08;;;;;;;16.03;10.03;;;13.40;99.90;;;;;;5078561;28;20290;-81
2023/05/11 08:36:35;;;;;;;15.63;10.60;;;13.40;99.90;;;;;;5066305;28;20203;-81
2023/05/11 08:39:04;;;;;;;15.37;9.67;;;13.40;99.90;;;;;;5076698;28;20222;-84
2023/05/11 08:41:32;;;;;;;16.50;10.47;;;13.30;99.90;;;;;;5068568;28;20206;-83
2023/05/11 08:44:02;;;;;;;15.83;9.50;;;13.30;99.90;;;;;;5073050;28;20641;-83
2023/05/11 08:46:30;;;;;;;16.47;10.07;;;13.40;99.90;;;;;;5072253;28;20202;-83
2023/05/11 08:48:58;;;;;;;16.73;10.13;;;13.50;99.90;;;;;;5066467;28;20207;-82
2023/05/11 08:51:27;;;;;;;12.93;9.17;;;13.40;99.90;;;;;;5070306;28;20202;-83
2023/05/11 08:53:56;;;;;;;14.57;9.27;;;13.40;99.90;;;;;;5071422;28;20202;-82
2023/05/11 08:56:26;;;;;;;14.50;8.77;;;13.40;99.90;;;;;;5073992;28;20202;-83
2023/05/11 08:58:54;;;;;;;12.63;8.03;;;13.50;99.90;;;;;;5064525;28;20242;-84
2023/05/11 09:01:23;;;;;;;12.23;8.03;;;13.60;99.90;;;;;;5071129;28;20612;-84
2023/05/11 09:03:51;;;;;;;12.43;8.63;;;13.50;99.90;;;;;;5070463;28;20223;-82
2023/05/11 09:06:18;;;;;;;11.97;8.20;;;13.50;99.90;;;;;;5071186;28;20206;-82
2023/05/11 09:08:46;;;;;;;10.53;6.80;;;13.50;99.90;;;;;;5069625;28;20225;-82
2023/05/11 09:11:13;;;;;;;12.00;7.60;;;13.40;99.90;;;;;;5062013;28;20198;-81
2023/05/11 09:13:42;;;;;;;10.20;6.50;;;13.40;99.90;;;;;;5066628;28;20194;-82
2023/05/11 09:16:09;;;;;;;9.30;6.27;;;13.40;99.90;;;;;;5069345;28;20202;-83
2023/05/11 09:18:35;;;;;;;9.03;6.13;;;13.50;99.90;;;;;;5064227;28;20290;-82
2023/05/11 09:21:02;;;;;;;9.10;5.93;;;13.40;99.90;;;;;;5073483;28;20694;-81
2023/05/11 09:23:29;;;;;;;9.17;5.73;;;13.60;99.90;;;;;;5075524;28;20344;-82
2023/05/11 09:25:56;;;;;;;8.10;5.30;;;13.60;99.90;;;;;;5080759;28;20622;-81
2023/05/11 09:28:25;;;;;;;9.00;6.00;;;13.50;99.90;;;;;;5076783;28;20290;-82
2023/05/11 09:30:53;;;;;;;10.50;6.43;;;13.50;99.90;;;;;;5071135;28;20284;-83
2023/05/11 09:33:25;;;;;;;9.20;5.57;;;13.70;99.90;;;;;;5075139;28;20218;-82
2023/05/11 09:35:52;;;;;;;9.90;6.03;;;13.60;99.90;;;;;;5066680;28;20221;-84
2023/05/11 09:38:22;;;;;;;9.00;6.53;;;13.70;99.90;;;;;;5074521;28;20224;-81
2023/05/11 09:40:53;;;;;;;8.53;6.03;;;13.80;99.90;;;;;;5070203;28;20230;-81
2023/05/11 09:43:21;;;;;;;5.53;4.73;;;13.70;99.90;;;;;;5071464;28;20229;-82
2023/05/11 09:45:53;;;;;;;6.73;4.70;;;13.70;99.90;;;;;;5071009;28;20206;-84
2023/05/11 09:48:30;;;;;;;6.77;5.60;;;13.70;99.90;;;;;;5063326;28;20194;-84
2023/05/11 09:51:02;;;;;;;5.93;4.57;;;13.80;99.90;;;;;;5081311;28;20202;-85
2023/05/11 09:53:41;;;;;;;6.13;4.43;;;13.70;99.90;;;;;;5069836;28;20237;-81
2023/05/11 09:56:09;;;;;;;7.47;4.37;;;13.80;99.90;;;;;;5066001;28;20221;-83
2023/05/11 09:58:47;;;;;;;5.03;3.87;;;13.80;99.90;;;;;;5076264;28;20229;-84
2023/05/11 10:01:14;;;;;;;6.47;4.00;;;13.90;99.90;;;;;;5068294;28;20198;-82
2023/05/11 10:03:53;;;;;;;6.00;4.30;;;14.00;99.90;;;;;;5065065;28;20314;-83
2023/05/11 10:06:20;;;;;;;4.83;3.90;;;13.90;99.90;;;;;;5061356;28;20642;-84
2023/05/11 10:08:48;;;;;;;5.87;4.20;;;13.90;99.90;;;;;;5070538;28;20198;-84
2023/05/11 10:11:14;;;;;;;6.87;4.70;;;13.80;99.90;;;;;;5067789;28;20194;-82
2023/05/11 10:13:44;;;;;;;5.57;4.20;;;13.80;99.90;;;;;;5071827;28;20221;-83
2023/05/11 10:16:14;;;;;;;4.05;3.33;;;14.00;99.90;;;;;;5065762;28;20205;-81
2023/05/11 10:18:42;;;;;;;4.40;3.30;;;13.90;99.90;;;;;;5063689;28;20585;-81
2023/05/11 10:21:11;;;;;;;4.17;3.43;;;14.00;99.90;;;;;;5067506;28;20213;-82
2023/05/11 10:23:39;;;;;;;4.93;3.70;;;14.00;99.90;;;;;;5069997;28;20223;-83
2023/05/11 10:26:05;;;;;;;4.50;3.60;;;14.00;99.90;;;;;;5060641;28;20209;-84
2023/05/11 10:28:33;;;;;;;5.03;3.87;;;13.90;99.90;;;;;;5074246;28;20202;-82
2023/05/11 10:31:00;;;;;;;6.27;4.40;;;13.80;99.90;;;;;;5070577;28;20245;-85
2023/05/11 10:33:30;;;;;;;5.60;4.07;;;13.70;99.90;;;;;;5075602;28;20222;-81
2023/05/11 10:35:58;;;;;;;6.47;4.33;;;13.80;99.90;;;;;;5068689;28;20265;-81
2023/05/11 10:38:27;;;;;;;7.10;4.90;;;13.70;99.90;;;;;;5070692;28;20206;-81
2023/05/11 10:40:57;;;;;;;6.03;3.83;;;13.70;99.90;;;;;;5072189;28;20210;-81
2023/05/11 10:43:57;;;;;;;5.30;3.90;;;13.70;99.90;;;;;;5073187;28;20308;-83
2023/05/11 10:46:37;;;;;;;4.10;3.30;;;13.60;99.90;;;;;;5052069;28;20194;-81
2023/05/11 10:49:37;;;;;;;5.50;3.53;;;13.60;99.90;;;;;;5060387;28;20571;-81
2023/05/11 10:52:22;;;;;;;4.80;3.40;;;13.60;99.90;;;;;;5073164;28;20225;-81
2023/05/11 10:55:05;;;;;;;3.90;2.67;;;13.60;99.90;;;;;;5066800;28;20289;-85
2023/05/11 10:57:42;;;;;;;3.27;2.90;;;13.60;99.90;;;;;;5067466;28;20230;-82
2023/05/11 11:00:54;;;;;;;4.83;3.33;;;13.70;99.90;;;;;;5075907;28;20202;-83
2023/05/11 11:03:21;;;;;;;6.43;3.97;;;13.70;99.90;;;;;;5051912;28;20218;-84
2023/05/11 11:05:48;;;;;;;4.73;3.40;;;13.80;99.90;;;;;;5072325;28;20627;-81
2023/05/11 11:08:15;;;;;;;3.67;3.17;;;13.80;99.90;;;;;;5072507;28;20194;-82
2023/05/11 11:10:45;;;;;;;4.77;3.50;;;13.70;99.90;;;;;;5073627;28;20676;-82
2023/05/11 11:13:14;;;;;;;4.53;3.33;;;13.70;99.90;;;;;;5077459;28;20699;-82
2023/05/11 11:16:09;;;;;;;4.33;3.10;;;13.80;99.90;;;;;;5077749;28;20579;-81
2023/05/11 11:18:35;;;;;;;3.87;3.20;;;13.70;99.90;;;;;;5073948;28;20206;-83
2023/05/11 11:21:03;;;;;;;3.87;2.83;;;13.50;99.90;;;;;;5069421;28;20210;-83
2023/05/11 11:23:48;;;;;;;3.83;2.90;;;13.50;99.90;;;;;;5072184;28;20230;-84
2023/05/11 11:26:38;;;;;;;3.10;2.67;;;13.50;99.90;;;;;;5075938;28;20198;-81
2023/05/11 11:29:11;;;;;;;4.43;3.17;;;13.40;99.90;;;;;;5065272;28;20228;-84
2023/05/11 11:31:39;;;;;;;2.93;2.30;;;13.50;99.90;;;;;;5074805;28;20222;-86
2023/05/11 11:34:36;;;;;;;2.53;2.03;;;13.50;99.90;;;;;;5082134;28;20615;-81
2023/05/11 11:37:08;;;;;;;3.43;2.50;;;13.40;99.90;;;;;;5063476;28;20240;-82
2023/05/11 11:39:59;;;;;;;3.60;2.53;;;13.30;99.90;;;;;;5076809;28;20368;-86
2023/05/11 11:42:40;;;;;;;3.77;2.47;;;13.40;99.90;;;;;;5061910;28;20226;-84
2023/05/11 11:45:31;;;;;;;3.10;2.63;;;13.50;99.90;;;;;;5071786;28;20675;-86
2023/05/11 11:48:12;;;;;;;5.50;3.23;;;13.50;99.90;;;;;;5077560;28;20294;-88
2023/05/11 11:50:41;;;;;;;6.50;4.33;;;13.40;99.90;;;;;;5071482;28;20198;-85
2023/05/11 11:53:11;;;;;;;7.43;4.23;;;13.40;99.90;;;;;;5071016;28;20627;-85
2023/05/11 11:55:51;;;;;;;5.40;3.83;;;13.40;99.90;;;;;;5071231;28;20220;-82
2023/05/11 11:58:51;;;;;;;5.57;2.87;;;13.50;99.90;;;;;;5075963;28;20223;-83
2023/05/11 12:01:21;;;;;;;4.27;3.10;;;13.40;99.90;;;;;;5059482;28;20570;-81
2023/05/11 12:04:09;;;;;;;3.75;2.72;;;13.40;99.90;;;;;;5070652;28;20234;-82
2023/05/11 12:06:40;;;;;;;5.05;3.22;;;13.40;99.90;;;;;;5074666;28;20199;-82
2023/05/11 12:09:08;;;;;;;5.50;3.50;;;13.30;99.90;;;;;;5069928;28;20205;-82
2023/05/11 12:11:35;;;;;;;5.60;3.43;;;13.30;99.90;;;;;;5075257;28;20202;-83
2023/05/11 12:14:02;;;;;;;5.23;3.47;;;13.30;99.90;;;;;;5064750;28;20535;-84
2023/05/11 12:16:31;;;;;;;5.77;3.60;;;13.40;99.90;;;;;;5073100;28;20209;-82
2023/05/11 12:18:59;;;;;;;8.57;4.22;;;13.50;99.90;;;;;;5073788;28;20202;-82
2023/05/11 12:21:27;;;;;;;6.17;3.67;;;13.70;99.90;;;;;;5069452;28;20214;-84
2023/05/11 12:23:56;;;;;;;6.60;3.70;;;13.60;99.90;;;;;;5072208;28;20229;-84
2023/05/11 12:26:24;;;;;;;6.27;3.70;;;13.60;99.90;;;;;;5066500;28;20226;-84
2023/05/11 12:28:51;;;;;;;5.65;3.80;;;13.60;99.90;;;;;;5065905;28;20218;-82
2023/05/11 12:31:19;;;;;;;6.50;4.10;;;13.60;99.90;;;;;;5071148;28;20289;-86
2023/05/11 12:33:48;;;;;;;6.65;4.30;;;13.60;99.90;;;;;;5069471;28;20210;-82
2023/05/11 12:36:15;;;;;;;6.60;4.53;;;13.70;99.90;;;;;;5073071;28;20285;-86
2023/05/11 12:38:45;;;;;;;7.55;5.20;;;13.70;99.90;;;;;;5070232;28;20221;-83
2023/05/11 12:41:20;;;;;;;7.65;5.47;;;13.70;99.90;;;;;;5080813;28;20199;-82
2023/05/11 12:43:47;;;;;;;8.43;5.50;;;13.70;99.90;;;;;;5076088;28;20200;-86
2023/05/11 12:46:14;;;;;;;14.50;7.97;;;13.80;99.90;;;;;;5072010;28;20592;-83
2023/05/11 12:48:41;;;;;;;13.67;8.60;;;13.90;99.90;;;;;;5079782;28;20201;-84
2023/05/11 12:51:09;;;;;;;12.45;8.18;;;14.00;99.90;;;;;;5073160;28;20656;-81
2023/05/11 12:53:36;;;;;;;14.70;9.88;;;13.80;99.90;;;;;;5079234;28;20214;-83
2023/05/11 12:56:04;;;;;;;16.83;10.80;;;13.90;99.90;;;;;;5086262;28;20210;-82
2023/05/11 12:58:37;;;;;;;17.63;11.23;;;13.90;99.90;;;;;;5079107;28;20245;-82
2023/05/11 13:01:05;;;;;;;17.97;11.80;;;14.00;99.90;;;;;;5071161;28;20198;-84
2023/05/11 13:03:34;;;;;;;18.00;11.63;;;14.10;99.90;;;;;;5066255;28;20230;-83
2023/05/11 13:06:10;;;;;;;17.92;11.25;;;14.10;99.90;;;;;;5075328;28;20240;-83
2023/05/11 13:08:38;;;;;;;18.13;11.07;;;14.20;99.90;;;;;;5077845;28;20194;-84